createdAt,value
2023-07-18T00:01:33.381Z,1.50
2023-07-18T00:04:00.232Z,1.87
2023-07-18T00:06:27.154Z,1.97
2023-07-18T00:08:53.858Z,1.93
2023-07-18T00:11:22.959Z,1.80
2023-07-18T00:13:49.604Z,3.13
2023-07-18T00:16:16.427Z,1.87
2023-07-18T00:18:43.201Z,2.00
2023-07-18T00:21:09.786Z,1.73
2023-07-18T00:23:36.407Z,1.80
2023-07-18T00:26:03.127Z,2.67
2023-07-18T00:28:29.752Z,2.40
2023-07-18T00:30:56.462Z,2.20
2023-07-18T00:33:23.876Z,2.27
2023-07-18T00:35:50.605Z,1.57
2023-07-18T00:38:17.659Z,2.53
2023-07-18T00:40:44.843Z,1.93
2023-07-18T00:43:18.489Z,1.83
2023-07-18T00:45:45.704Z,1.93
2023-07-18T00:48:12.610Z,1.80
2023-07-18T00:50:39.582Z,2.00
2023-07-18T00:53:06.274Z,2.10
2023-07-18T00:55:33.138Z,2.30
2023-07-18T00:57:59.889Z,1.93
2023-07-18T01:00:26.672Z,2.10
2023-07-18T01:02:54.666Z,1.93
2023-07-18T01:05:21.575Z,2.63
2023-07-18T01:07:48.438Z,2.87
2023-07-18T01:10:18.463Z,2.73
2023-07-18T01:12:45.947Z,2.63
2023-07-18T01:15:14.220Z,1.90
2023-07-18T01:17:46.204Z,1.87
2023-07-18T01:20:17.813Z,2.43
2023-07-18T01:22:45.347Z,1.70
2023-07-18T01:25:13.306Z,2.20
2023-07-18T01:27:40.071Z,2.03
2023-07-18T01:30:07.504Z,2.17
2023-07-18T01:32:35.350Z,2.43
2023-07-18T01:35:04.968Z,1.97
2023-07-18T01:37:31.626Z,2.27
2023-07-18T01:39:58.846Z,1.73
2023-07-18T01:42:25.466Z,3.60
2023-07-18T01:44:52.238Z,2.00
2023-07-18T01:47:18.987Z,2.07
2023-07-18T01:49:45.663Z,2.83
2023-07-18T01:52:12.309Z,1.83
2023-07-18T01:54:38.912Z,1.87
2023-07-18T01:57:06.084Z,4.40
2023-07-18T01:59:32.685Z,3.33
2023-07-18T02:01:59.474Z,1.97
2023-07-18T02:04:27.148Z,2.90
2023-07-18T02:06:55.091Z,2.60
2023-07-18T02:09:21.788Z,1.60
2023-07-18T02:11:48.683Z,2.47
2023-07-18T02:14:17.034Z,2.43
2023-07-18T02:16:43.745Z,1.70
2023-07-18T02:19:10.360Z,2.93
2023-07-18T02:21:36.998Z,1.70
2023-07-18T02:24:04.516Z,1.93
2023-07-18T02:26:31.212Z,2.10
2023-07-18T02:28:57.933Z,1.67
2023-07-18T02:31:24.600Z,2.37
2023-07-18T02:33:51.295Z,2.23
2023-07-18T02:36:19.197Z,2.23
2023-07-18T02:38:45.893Z,4.83
2023-07-18T02:41:12.488Z,1.93
2023-07-18T02:43:39.245Z,1.93
2023-07-18T02:46:05.915Z,1.80
2023-07-18T02:48:32.600Z,2.20
2023-07-18T02:50:59.238Z,2.17
2023-07-18T02:53:25.902Z,3.10
2023-07-18T02:55:53.043Z,2.30
2023-07-18T02:58:19.736Z,2.10
2023-07-18T03:00:47.175Z,3.23
2023-07-18T03:03:14.059Z,1.70
2023-07-18T03:05:40.841Z,2.90
2023-07-18T03:08:07.576Z,1.80
2023-07-18T03:10:34.236Z,3.07
2023-07-18T03:13:00.862Z,2.70
2023-07-18T03:15:27.541Z,2.13
2023-07-18T03:17:54.169Z,2.70
2023-07-18T03:20:21.232Z,2.00
2023-07-18T03:22:48.665Z,2.27
2023-07-18T03:25:15.733Z,2.47
2023-07-18T03:27:42.619Z,2.43
2023-07-18T03:30:11.940Z,2.10
2023-07-18T03:32:39.608Z,2.50
2023-07-18T03:35:07.524Z,2.30
2023-07-18T03:37:34.961Z,1.90
2023-07-18T03:40:01.703Z,1.60
2023-07-18T03:42:28.475Z,1.57
2023-07-18T03:44:55.143Z,1.50
2023-07-18T03:47:22.082Z,1.90
2023-07-18T03:49:48.774Z,2.60
2023-07-18T03:52:16.151Z,2.07
2023-07-18T03:54:43.098Z,1.87
2023-07-18T03:57:09.921Z,2.30
2023-07-18T03:59:36.506Z,1.90
2023-07-18T04:02:03.207Z,1.67
2023-07-18T04:04:31.236Z,2.57
2023-07-18T04:06:57.936Z,1.50
2023-07-18T04:09:24.588Z,2.20
2023-07-18T04:11:51.243Z,1.73
2023-07-18T04:14:17.877Z,2.30
2023-07-18T04:16:44.690Z,2.20
2023-07-18T04:19:11.421Z,2.20
2023-07-18T04:21:38.099Z,1.80
2023-07-18T04:24:06.078Z,1.80
2023-07-18T04:26:32.853Z,2.43
2023-07-18T04:28:59.584Z,1.57
2023-07-18T04:31:27.484Z,0.97
2023-07-18T04:33:54.285Z,1.83
2023-07-18T04:36:20.919Z,2.17
2023-07-18T04:38:47.580Z,1.43
2023-07-18T04:41:14.418Z,1.60
2023-07-18T04:43:41.171Z,1.63
2023-07-18T04:46:09.431Z,2.00
2023-07-18T04:48:36.099Z,1.60
2023-07-18T04:51:02.846Z,1.47
2023-07-18T04:53:30.416Z,1.73
2023-07-18T04:55:57.279Z,1.90
2023-07-18T04:58:26.116Z,1.70
2023-07-18T05:00:54.633Z,1.63
2023-07-18T05:03:21.922Z,2.03
2023-07-18T05:05:48.656Z,1.87
2023-07-18T05:08:15.273Z,2.77
2023-07-18T05:10:42.092Z,2.60
2023-07-18T05:13:08.808Z,2.30
2023-07-18T05:15:35.716Z,2.90
2023-07-18T05:18:02.541Z,2.93
2023-07-18T05:20:30.846Z,3.80
2023-07-18T05:22:57.611Z,3.93
2023-07-18T05:25:24.301Z,3.60
2023-07-18T05:27:50.958Z,2.87
2023-07-18T05:30:18.818Z,3.80
2023-07-18T05:32:46.015Z,2.80
2023-07-18T05:35:15.305Z,4.23
2023-07-18T05:37:42.554Z,3.20
2023-07-18T05:40:12.509Z,3.57
2023-07-18T05:42:42.828Z,2.73
2023-07-18T05:45:09.835Z,3.10
2023-07-18T05:47:37.131Z,3.73
2023-07-18T05:50:05.877Z,2.70
2023-07-18T05:52:32.765Z,2.60
2023-07-18T05:54:59.704Z,3.17
2023-07-18T05:57:26.441Z,2.00
2023-07-18T05:59:53.114Z,3.57
2023-07-18T06:02:21.291Z,1.83
2023-07-18T06:04:48.536Z,2.43
2023-07-18T06:07:16.346Z,2.90
2023-07-18T06:09:43.538Z,1.77
2023-07-18T06:12:10.577Z,1.50
2023-07-18T06:14:37.199Z,2.00
2023-07-18T06:17:04.643Z,1.70
2023-07-18T06:19:31.494Z,2.73
2023-07-18T06:21:58.405Z,3.07
2023-07-18T06:24:25.756Z,2.53
2023-07-18T06:26:52.644Z,1.90
2023-07-18T06:29:19.884Z,1.50
2023-07-18T06:31:47.344Z,1.57
2023-07-18T06:34:13.990Z,2.37
2023-07-18T06:36:40.716Z,2.33
2023-07-18T06:39:07.411Z,2.70
2023-07-18T06:41:34.462Z,2.53
2023-07-18T06:44:01.300Z,3.23
2023-07-18T06:46:28.829Z,1.43
2023-07-18T06:48:55.502Z,1.83
2023-07-18T06:51:24.061Z,2.17
2023-07-18T06:53:50.734Z,1.80
2023-07-18T06:56:17.350Z,1.60
2023-07-18T06:58:44.055Z,1.30
2023-07-18T07:01:11.830Z,0.80
2023-07-18T07:03:38.728Z,1.23
2023-07-18T07:06:12.466Z,1.30
2023-07-18T07:08:39.120Z,2.00
2023-07-18T07:11:06.841Z,2.00
2023-07-18T07:13:34.781Z,1.47
2023-07-18T07:16:02.191Z,1.57
2023-07-18T07:18:28.858Z,2.07
2023-07-18T07:20:55.841Z,2.40
2023-07-18T07:23:22.502Z,1.87
2023-07-18T07:25:49.235Z,2.23
2023-07-18T07:28:15.978Z,1.27
2023-07-18T07:30:43.794Z,2.83
2023-07-18T07:33:10.603Z,2.30
2023-07-18T07:35:37.207Z,1.20
2023-07-18T07:38:03.873Z,1.80
2023-07-18T07:40:31.087Z,1.20
2023-07-18T07:42:57.784Z,1.70
2023-07-18T07:45:24.520Z,1.50
2023-07-18T07:47:51.223Z,1.67
2023-07-18T07:50:17.977Z,2.53
2023-07-18T07:52:44.760Z,1.43
2023-07-18T07:55:12.495Z,1.33
2023-07-18T07:57:39.815Z,1.70
2023-07-18T08:00:08.326Z,3.07
2023-07-18T08:02:35.621Z,1.60
2023-07-18T08:05:02.449Z,1.20
2023-07-18T08:07:29.333Z,1.40
2023-07-18T08:09:56.284Z,1.50
2023-07-18T08:12:23.340Z,1.73
2023-07-18T08:14:50.241Z,2.30
2023-07-18T08:17:18.213Z,2.20
2023-07-18T08:19:44.928Z,1.80
2023-07-18T08:22:11.771Z,2.47
2023-07-18T08:24:39.254Z,1.60
2023-07-18T08:27:06.489Z,1.37
2023-07-18T08:29:34.623Z,1.37
2023-07-18T08:32:01.555Z,1.47
2023-07-18T08:34:28.359Z,1.10
2023-07-18T08:36:55.027Z,1.73
2023-07-18T08:39:21.686Z,1.30
2023-07-18T08:41:52.793Z,1.30
2023-07-18T08:44:20.336Z,1.57
2023-07-18T08:46:47.140Z,0.73
2023-07-18T08:49:15.290Z,1.10
2023-07-18T08:51:45.511Z,2.70
2023-07-18T08:54:13.120Z,1.37
2023-07-18T08:56:45.093Z,1.37
2023-07-18T08:59:12.166Z,1.03
2023-07-18T09:01:49.127Z,1.40
2023-07-18T09:04:16.225Z,1.17
2023-07-18T09:06:59.317Z,0.83
2023-07-18T09:09:27.299Z,0.83
2023-07-18T09:11:55.485Z,0.97
2023-07-18T09:14:29.696Z,2.13
2023-07-18T09:16:56.903Z,1.10
2023-07-18T09:19:40.833Z,0.83
2023-07-18T09:22:11.735Z,1.00
2023-07-18T09:24:38.613Z,1.20
2023-07-18T09:27:09.486Z,0.93
2023-07-18T09:29:36.189Z,0.83
2023-07-18T09:32:02.972Z,0.73
2023-07-18T09:34:29.757Z,0.50
2023-07-18T09:37:00.922Z,1.10
2023-07-18T09:39:28.218Z,0.60
2023-07-18T09:41:56.024Z,0.90
2023-07-18T09:44:33.111Z,0.50
2023-07-18T09:47:02.181Z,0.80
2023-07-18T09:49:33.052Z,0.83
2023-07-18T09:52:04.159Z,0.50
2023-07-18T09:54:34.153Z,0.70
2023-07-18T09:57:03.966Z,0.83
2023-07-18T09:59:30.900Z,0.50
2023-07-18T10:01:57.684Z,0.60
2023-07-18T10:04:24.751Z,0.80
2023-07-18T10:06:51.710Z,0.47
2023-07-18T10:09:18.450Z,0.83
2023-07-18T10:12:00.553Z,0.60
2023-07-18T10:14:54.351Z,1.07
2023-07-18T10:17:41.661Z,0.60
2023-07-18T10:20:24.148Z,0.90
2023-07-18T10:22:51.806Z,0.67
2023-07-18T10:25:18.892Z,1.03
2023-07-18T10:27:46.159Z,1.23
2023-07-18T10:30:17.336Z,0.90
2023-07-18T10:32:53.685Z,0.70
2023-07-18T10:35:21.542Z,0.60
2023-07-18T10:37:53.542Z,0.90
2023-07-18T10:40:44.084Z,0.80
2023-07-18T10:43:17.084Z,0.73
2023-07-18T10:45:44.293Z,1.30
2023-07-18T10:48:14.868Z,1.27
2023-07-18T10:50:42.795Z,0.60
2023-07-18T10:53:22.349Z,1.00
2023-07-18T10:55:49.555Z,1.03
2023-07-18T10:58:17.793Z,1.00
2023-07-18T11:00:44.592Z,0.60
2023-07-18T11:03:22.447Z,1.00
2023-07-18T11:05:52.939Z,0.90
2023-07-18T11:08:29.988Z,0.87
2023-07-18T11:11:01.747Z,0.80
2023-07-18T11:13:34.997Z,0.60
2023-07-18T11:16:09.081Z,1.13
2023-07-18T11:18:36.627Z,0.57
2023-07-18T11:21:04.729Z,0.80
2023-07-18T11:23:31.871Z,0.60
2023-07-18T11:25:58.616Z,0.93
2023-07-18T11:28:34.811Z,0.67
2023-07-18T11:31:01.596Z,0.50
2023-07-18T11:33:29.315Z,0.83
2023-07-18T11:35:57.554Z,0.70
2023-07-18T11:38:25.738Z,0.90
2023-07-18T11:40:52.987Z,0.53
2023-07-18T11:43:19.787Z,0.80
2023-07-18T11:45:47.716Z,0.50
2023-07-18T11:48:17.259Z,0.63
2023-07-18T11:50:46.760Z,0.73
2023-07-18T11:53:13.461Z,0.60
2023-07-18T11:55:40.098Z,0.90
2023-07-18T11:58:09.225Z,0.90
2023-07-18T12:00:36.473Z,0.70
2023-07-18T12:03:04.024Z,0.97
2023-07-18T12:05:30.766Z,0.60
2023-07-18T12:07:57.466Z,0.50
2023-07-18T12:10:26.170Z,0.60
2023-07-18T12:12:53.143Z,0.73
2023-07-18T12:15:19.881Z,0.70
2023-07-18T12:17:48.232Z,0.57
2023-07-18T12:20:15.418Z,1.20
2023-07-18T12:22:42.241Z,0.60
2023-07-18T12:25:09.333Z,1.47
2023-07-18T12:27:36.451Z,0.60
2023-07-18T12:30:03.455Z,0.40
2023-07-18T12:32:32.305Z,0.50
2023-07-18T12:34:59.322Z,0.67
2023-07-18T12:37:26.063Z,0.87
2023-07-18T12:39:52.819Z,2.63
2023-07-18T12:42:19.521Z,0.70
2023-07-18T12:44:46.421Z,0.47
2023-07-18T12:47:13.488Z,0.70
2023-07-18T12:52:09.977Z,0.60
2023-07-18T12:54:36.647Z,0.50
2023-07-18T12:57:04.241Z,0.50
2023-07-18T12:59:30.917Z,0.50
2023-07-18T13:01:57.776Z,0.50
2023-07-18T13:04:25.622Z,0.40
2023-07-18T13:06:52.334Z,1.70
2023-07-18T13:09:19.059Z,0.90
2023-07-18T13:11:46.326Z,0.40
2023-07-18T13:14:17.359Z,0.80
2023-07-18T13:16:44.057Z,1.43
2023-07-18T13:19:10.798Z,0.50
2023-07-18T13:21:37.551Z,2.60
2023-07-18T13:24:04.502Z,0.40
2023-07-18T13:26:31.378Z,0.43
2023-07-18T13:28:58.763Z,0.87
2023-07-18T13:31:25.544Z,0.63
2023-07-18T13:33:52.374Z,0.60
2023-07-18T13:36:19.523Z,0.50
2023-07-18T13:38:46.771Z,0.50
2023-07-18T13:41:13.976Z,0.70
2023-07-18T13:43:40.911Z,0.60
2023-07-18T13:46:07.683Z,0.73
2023-07-18T13:48:34.767Z,0.90
2023-07-18T13:51:01.674Z,0.50
2023-07-18T13:53:28.534Z,0.60
2023-07-18T13:55:56.188Z,1.00
2023-07-18T13:58:23.348Z,0.40
2023-07-18T14:00:50.241Z,0.40
2023-07-18T14:03:33.454Z,0.47
2023-07-18T14:06:02.482Z,0.77
2023-07-18T14:08:30.861Z,0.80
2023-07-18T14:10:57.767Z,0.80
2023-07-18T14:13:24.680Z,0.60
2023-07-18T14:15:51.862Z,0.60
2023-07-18T14:18:18.782Z,0.60
2023-07-18T14:20:46.222Z,0.70
2023-07-18T14:23:13.247Z,0.87
2023-07-18T14:25:40.046Z,0.40
2023-07-18T14:28:06.724Z,0.67
2023-07-18T14:30:33.545Z,0.47
2023-07-18T14:33:01.056Z,0.40
2023-07-18T14:35:29.086Z,0.70
2023-07-18T14:37:55.758Z,0.40
2023-07-18T14:40:22.417Z,0.60
2023-07-18T14:42:49.066Z,0.90
2023-07-18T14:45:15.774Z,0.77
2023-07-18T14:47:43.023Z,0.60
2023-07-18T14:50:11.077Z,0.30
2023-07-18T14:52:38.669Z,0.43
2023-07-18T14:55:05.893Z,0.50
2023-07-18T14:57:32.662Z,0.60
2023-07-18T14:59:59.470Z,0.70
2023-07-18T15:02:26.219Z,1.70
2023-07-18T15:04:53.002Z,0.90
2023-07-18T15:07:19.806Z,1.00
2023-07-18T15:09:47.087Z,1.13
2023-07-18T15:12:14.527Z,0.77
2023-07-18T15:14:41.340Z,1.17
2023-07-18T15:17:08.528Z,0.90
2023-07-18T15:19:35.408Z,0.80
2023-07-18T15:22:02.792Z,1.20
2023-07-18T15:24:29.491Z,1.90
2023-07-18T15:26:56.989Z,1.43
2023-07-18T15:29:23.903Z,1.40
2023-07-18T15:31:50.687Z,1.00
2023-07-18T15:34:17.478Z,1.50
2023-07-18T15:36:46.440Z,0.90
2023-07-18T15:39:13.689Z,1.00
2023-07-18T15:41:40.514Z,1.10
2023-07-18T15:44:07.398Z,1.70
2023-07-18T15:46:37.225Z,1.00
2023-07-18T15:49:05.296Z,1.27
2023-07-18T15:51:32.294Z,1.30
2023-07-18T15:53:59.092Z,0.80
2023-07-18T15:56:25.761Z,0.70
2023-07-18T15:58:53.633Z,1.00
2023-07-18T16:01:20.662Z,1.10
2023-07-18T16:03:47.803Z,1.07
2023-07-18T16:06:15.016Z,1.07
2023-07-18T16:08:41.810Z,0.87
2023-07-18T16:11:08.568Z,1.17
2023-07-18T16:13:36.377Z,1.53
2023-07-18T16:16:05.514Z,0.97
2023-07-18T16:18:32.381Z,0.93
2023-07-18T16:20:59.155Z,1.07
2023-07-18T16:23:26.041Z,0.97
2023-07-18T16:25:52.804Z,0.80
2023-07-18T16:28:19.607Z,1.33
2023-07-18T16:30:46.420Z,1.13
2023-07-18T16:33:13.449Z,1.10
2023-07-18T16:35:40.435Z,1.67
2023-07-18T16:38:07.608Z,1.07
2023-07-18T16:40:36.806Z,1.13
2023-07-18T16:43:06.096Z,1.57
2023-07-18T16:45:33.007Z,0.80
2023-07-18T16:47:59.877Z,1.47
2023-07-18T16:50:26.694Z,1.10
2023-07-18T16:52:53.551Z,0.90
2023-07-18T16:55:20.277Z,0.77
2023-07-18T16:57:46.914Z,1.33
2023-07-18T17:00:13.993Z,1.00
2023-07-18T17:02:40.660Z,0.90
2023-07-18T17:05:07.630Z,1.13
2023-07-18T17:07:34.297Z,0.80
2023-07-18T17:10:02.247Z,1.07
2023-07-18T17:12:29.069Z,1.70
2023-07-18T17:14:56.504Z,1.30
2023-07-18T17:17:23.361Z,0.80
2023-07-18T17:20:04.664Z,1.43
2023-07-18T17:22:34.452Z,1.13
2023-07-18T17:25:01.256Z,0.73
2023-07-18T17:27:28.633Z,1.30
2023-07-18T17:29:55.359Z,1.13
2023-07-18T17:32:22.159Z,1.60
2023-07-18T17:34:48.984Z,1.30
2023-07-18T17:37:16.210Z,0.90
2023-07-18T17:39:44.592Z,0.70
2023-07-18T17:42:12.438Z,1.07
2023-07-18T17:44:41.168Z,0.90
2023-07-18T17:47:07.922Z,1.10
2023-07-18T17:49:34.597Z,1.27
2023-07-18T17:52:01.402Z,2.37
2023-07-18T17:54:28.880Z,1.10
2023-07-18T17:56:56.066Z,1.07
2023-07-18T17:59:22.865Z,1.13
2023-07-18T18:01:49.693Z,1.20
2023-07-18T18:04:16.531Z,0.80
2023-07-18T18:06:46.305Z,1.50
2023-07-18T18:09:12.998Z,0.70
2023-07-18T18:11:39.672Z,1.73
2023-07-18T18:14:07.127Z,1.10
2023-07-18T18:16:34.857Z,0.87
2023-07-18T18:19:04.175Z,2.53
2023-07-18T18:21:31.880Z,0.63
2023-07-18T18:23:58.615Z,0.77
2023-07-18T18:26:25.902Z,1.33
2023-07-18T18:28:54.324Z,1.10
2023-07-18T18:31:21.325Z,1.13
2023-07-18T18:33:48.411Z,1.07
2023-07-18T18:36:15.287Z,1.17
2023-07-18T18:38:42.835Z,1.20
2023-07-18T18:41:09.563Z,1.00
2023-07-18T18:43:36.305Z,0.80
2023-07-18T18:46:03.169Z,1.30
2023-07-18T18:48:30.184Z,1.33
2023-07-18T18:50:57.302Z,1.17
2023-07-18T18:53:25.696Z,1.27
2023-07-18T18:55:52.406Z,1.37
2023-07-18T18:58:19.915Z,1.73
2023-07-18T19:00:46.684Z,1.57
2023-07-18T19:03:13.538Z,0.80
2023-07-18T19:05:40.305Z,0.90
2023-07-18T19:08:07.020Z,0.80
2023-07-18T19:10:33.753Z,0.73
2023-07-18T19:13:00.712Z,1.10
2023-07-18T19:15:27.698Z,0.97
2023-07-18T19:17:54.411Z,0.90
2023-07-18T19:20:21.182Z,1.77
2023-07-18T19:22:48.260Z,0.60
2023-07-18T19:25:15.411Z,1.13
2023-07-18T19:27:42.242Z,1.00
2023-07-18T19:30:11.255Z,1.30
2023-07-18T19:32:40.309Z,0.70
2023-07-18T19:35:07.419Z,1.47
2023-07-18T19:37:34.743Z,1.10
2023-07-18T19:40:01.416Z,1.23
2023-07-18T19:42:28.136Z,0.90
2023-07-18T19:44:55.195Z,0.90
2023-07-18T19:47:21.949Z,0.70
2023-07-18T19:49:49.972Z,0.83
2023-07-18T19:52:16.719Z,1.20
2023-07-18T19:54:43.456Z,1.03
2023-07-18T19:57:10.112Z,1.00
2023-07-18T19:59:36.705Z,1.20
2023-07-18T20:02:03.464Z,1.13
2023-07-18T20:04:30.315Z,1.10
2023-07-18T20:06:57.046Z,1.20
2023-07-18T20:09:24.045Z,1.60
2023-07-18T20:11:50.769Z,2.03
2023-07-18T20:14:17.444Z,1.10
2023-07-18T20:16:44.140Z,1.57
2023-07-18T20:19:11.461Z,1.10
2023-07-18T20:21:43.097Z,1.00
2023-07-18T20:24:09.965Z,1.50
2023-07-18T20:26:36.744Z,1.23
2023-07-18T20:29:05.615Z,0.63
2023-07-18T20:31:32.473Z,0.80
2023-07-18T20:34:00.714Z,1.20
2023-07-18T20:36:27.630Z,1.27
2023-07-18T20:38:54.294Z,1.00
2023-07-18T20:41:21.262Z,1.40
2023-07-18T20:43:48.106Z,1.03
2023-07-18T20:46:17.040Z,1.20
2023-07-18T20:48:43.751Z,1.13
2023-07-18T20:51:10.404Z,0.97
2023-07-18T20:53:37.188Z,1.10
2023-07-18T20:56:04.272Z,0.80
2023-07-18T20:58:31.644Z,2.00
2023-07-18T21:00:58.450Z,1.30
2023-07-18T21:03:25.298Z,1.20
2023-07-18T21:05:52.196Z,1.20
2023-07-18T21:08:19.558Z,1.27
2023-07-18T21:10:46.296Z,1.40
2023-07-18T21:13:13.300Z,1.63
2023-07-18T21:15:40.124Z,1.67
2023-07-18T21:18:06.909Z,1.37
2023-07-18T21:20:33.764Z,1.03
2023-07-18T21:23:00.794Z,1.20
2023-07-18T21:25:28.301Z,1.13
2023-07-18T21:27:55.022Z,1.30
2023-07-18T21:30:21.834Z,1.10
2023-07-18T21:32:48.553Z,1.20
2023-07-18T21:35:16.050Z,1.03
2023-07-18T21:37:42.692Z,1.20
2023-07-18T21:40:09.960Z,1.10
2023-07-18T21:42:36.685Z,1.40
2023-07-18T21:45:03.543Z,1.27
2023-07-18T21:47:30.466Z,1.93
2023-07-18T21:49:57.140Z,1.60
2023-07-18T21:52:23.948Z,1.10
2023-07-18T21:54:50.680Z,1.10
2023-07-18T21:57:17.753Z,1.00
2023-07-18T21:59:44.701Z,1.80
2023-07-18T22:02:13.022Z,1.27
2023-07-18T22:04:40.141Z,1.00
2023-07-18T22:07:09.234Z,1.20
2023-07-18T22:09:36.344Z,0.90
2023-07-18T22:12:04.472Z,1.37
2023-07-18T22:14:31.230Z,1.20
2023-07-18T22:16:58.065Z,1.00
2023-07-18T22:19:24.742Z,1.27
2023-07-18T22:21:51.456Z,1.40
2023-07-18T22:24:18.205Z,1.67
2023-07-18T22:26:45.231Z,1.60
2023-07-18T22:29:11.941Z,1.10
2023-07-18T22:31:38.853Z,1.27
2023-07-18T22:34:05.590Z,1.40
2023-07-18T22:36:32.318Z,1.20
2023-07-18T22:38:59.028Z,1.50
2023-07-18T22:41:26.230Z,1.33
2023-07-18T22:43:53.218Z,1.43
2023-07-18T22:46:20.032Z,1.30
2023-07-18T22:48:46.780Z,1.23
2023-07-18T22:51:13.467Z,1.17
2023-07-18T22:53:40.312Z,1.27
2023-07-18T22:56:06.991Z,1.40
2023-07-18T22:58:33.913Z,1.60
2023-07-18T23:01:00.650Z,1.43
2023-07-18T23:03:27.419Z,1.40
2023-07-18T23:05:54.195Z,1.17
2023-07-18T23:08:20.786Z,0.90
2023-07-18T23:10:47.975Z,1.00
2023-07-18T23:13:16.345Z,1.27
2023-07-18T23:15:43.246Z,1.33
2023-07-18T23:18:09.930Z,2.03
2023-07-18T23:20:36.715Z,1.50
2023-07-18T23:23:04.169Z,1.57
2023-07-18T23:25:31.035Z,1.63
2023-07-18T23:27:57.828Z,1.70
2023-07-18T23:30:24.515Z,1.30
2023-07-18T23:32:51.257Z,1.40
2023-07-18T23:35:18.037Z,2.10
2023-07-18T23:37:44.702Z,2.00
2023-07-18T23:40:11.476Z,1.53
2023-07-18T23:42:38.650Z,1.37
2023-07-18T23:45:05.777Z,1.50
2023-07-18T23:47:32.481Z,1.63
2023-07-18T23:49:59.264Z,1.67
2023-07-18T23:52:25.891Z,1.40
2023-07-18T23:54:52.501Z,1.53
2023-07-18T23:57:19.127Z,2.93
2023-07-18T23:59:45.748Z,2.33
